Time;durP1;ratioP1;P1;durP2;ratioP2;P2;SDS_P1;SDS_P2;PMS_P1;PMS_P2;Temp;Humidity;BMP_temperature;BMP_pressure;BME280_temperature;BME280_humidity;BME280_pressure;Samples;Min_cycle;Max_cycle;Signal;HPM_P1;HPM_P2
2023/11/05 00:01:25;;;;;;;11.50;4.80;;;;;;;6.20;86.31;97336.61;136762;1279;22458;-71
2023/11/05 00:04:28;;;;;;;5.80;4.00;;;;;;;6.21;86.05;97323.12;136729;1272;22242;-71
2023/11/05 00:07:47;;;;;;;7.90;4.20;;;;;;;6.22;86.09;97321.54;136727;1279;22438;-71
2023/11/05 00:10:47;;;;;;;7.20;3.90;;;;;;;6.24;86.28;97316.02;136772;1279;22422;-71
2023/11/05 00:13:48;;;;;;;6.90;3.90;;;;;;;6.25;86.28;97319.18;136751;1279;22460;-71
2023/11/05 00:16:48;;;;;;;4.90;3.20;;;;;;;6.26;86.22;97315.89;136752;1279;23097;-71
2023/11/05 00:19:57;;;;;;;9.20;3.70;;;;;;;6.28;86.47;97307.55;136755;1279;22428;-71
2023/11/05 00:22:58;;;;;;;6.30;3.40;;;;;;;6.30;86.39;97294.70;136792;1279;22470;-71
2023/11/05 00:25:58;;;;;;;7.20;4.10;;;;;;;6.32;86.47;97288.09;136793;1279;22466;-71
2023/11/05 00:29:00;;;;;;;10.30;4.10;;;;;;;6.35;86.53;97281.96;136760;1277;23151;-71
2023/11/05 00:32:03;;;;;;;5.90;3.30;;;;;;;6.37;86.59;97282.84;136769;1279;23436;-71
2023/11/05 00:35:07;;;;;;;6.60;3.60;;;;;;;6.40;86.62;97280.20;136748;1279;22395;-71
2023/11/05 00:38:08;;;;;;;5.00;3.30;;;;;;;6.43;86.53;97276.40;136791;1279;23120;-71
2023/11/05 00:41:08;;;;;;;10.80;3.50;;;;;;;6.46;86.65;97279.64;136770;1279;22356;-71
2023/11/05 00:44:10;;;;;;;4.90;3.80;;;;;;;6.48;86.56;97282.95;136768;1279;22458;-71
2023/11/05 00:47:12;;;;;;;4.70;3.50;;;;;;;6.51;86.68;97277.84;136747;1279;22415;-72
2023/11/05 00:50:12;;;;;;;6.50;3.40;;;;;;;6.54;86.58;97270.13;136781;1279;22482;-72
2023/11/05 00:53:13;;;;;;;6.00;3.60;;;;;;;6.56;86.59;97260.30;136768;1279;22460;-71
2023/11/05 00:56:14;;;;;;;4.30;3.10;;;;;;;6.57;86.76;97249.23;136785;1279;22443;-71
2023/11/05 00:59:15;;;;;;;5.00;3.10;;;;;;;6.58;86.60;97248.30;136754;1279;22428;-71
2023/11/05 01:02:16;;;;;;;;;;;;;;;6.58;86.76;97246.83;136780;1278;22467;-71
2023/11/05 01:05:16;;;;;;;;;;;;;;;6.60;86.71;97246.55;136823;1279;23171;-71
2023/11/05 01:08:17;;;;;;;5.40;2.90;;;;;;;6.62;86.79;97252.94;136766;1279;22443;-71
2023/11/05 01:11:19;;;;;;;4.90;3.20;;;;;;;6.66;86.74;97269.02;136789;1279;22403;-71
2023/11/05 01:14:20;;;;;;;3.50;2.60;;;;;;;6.70;86.71;97272.22;136800;1277;22379;-71
2023/11/05 01:17:24;;;;;;;7.30;3.40;;;;;;;6.74;86.77;97278.81;136699;1279;22370;-71
2023/11/05 01:20:24;;;;;;;5.10;2.90;;;;;;;6.78;86.77;97284.46;136784;1279;22247;-71
2023/11/05 01:23:25;;;;;;;5.60;3.10;;;;;;;6.82;86.53;97296.08;136773;1279;22407;-72
2023/11/05 01:26:26;;;;;;;5.60;2.80;;;;;;;6.86;86.63;97305.19;136793;1279;22470;-72
2023/11/05 01:29:26;;;;;;;6.70;3.20;;;;;;;6.89;86.48;97314.25;136771;1278;22285;-72
2023/11/05 01:32:28;;;;;;;8.90;4.20;;;;;;;6.91;86.51;97301.38;136771;1272;22497;-71
2023/11/05 01:35:28;;;;;;;7.00;3.20;;;;;;;6.93;86.49;97290.41;136796;1279;22469;-71
2023/11/05 01:38:29;;;;;;;6.80;4.40;;;;;;;6.95;86.36;97289.15;136771;1279;22452;-71
2023/11/05 01:41:36;;;;;;;6.20;3.30;;;;;;;6.96;86.53;97293.05;136790;1279;22448;-71
2023/11/05 01:44:36;;;;;;;6.40;2.70;;;;;;;6.98;86.28;97283.77;136761;1279;22427;-71
2023/11/05 01:47:37;;;;;;;6.30;3.20;;;;;;;6.99;86.24;97283.34;136789;1279;23127;-71
2023/11/05 01:50:38;;;;;;;8.00;4.30;;;;;;;7.00;86.34;97283.85;136789;1279;22436;-71
2023/11/05 01:53:38;;;;;;;;;;;;;;;7.01;86.34;97270.46;136791;1279;22412;-72
2023/11/05 01:56:39;;;;;;;6.80;2.90;;;;;;;7.01;86.31;97261.27;136784;1279;23173;-71
2023/11/05 01:59:40;;;;;;;;;;;;;;;7.02;86.22;97251.70;136711;1279;22445;-71
2023/11/05 02:02:42;;;;;;;4.40;2.90;;;;;;;7.03;86.05;97235.80;136620;1279;22702;-71
2023/11/05 02:05:43;;;;;;;8.20;4.20;;;;;;;7.03;85.92;97232.47;136597;1279;23097;-72
2023/11/05 02:08:44;;;;;;;3.90;2.70;;;;;;;7.04;86.04;97234.50;136690;1279;22461;-71
2023/11/05 02:11:45;;;;;;;7.90;3.20;;;;;;;7.05;85.74;97238.52;136792;1279;23648;-72
2023/11/05 02:14:54;;;;;;;5.00;2.70;;;;;;;7.07;85.68;97232.98;136779;1279;22458;-72
2023/11/05 02:17:58;;;;;;;5.20;2.50;;;;;;;7.09;85.55;97225.94;136765;1279;22539;-71
2023/11/05 02:20:59;;;;;;;4.00;3.00;;;;;;;7.12;85.15;97221.83;136807;1279;22450;-71
2023/11/05 02:23:59;;;;;;;6.80;3.10;;;;;;;7.15;84.87;97209.99;136791;1279;22566;-72
2023/11/05 02:27:00;;;;;;;6.10;3.40;;;;;;;7.18;84.55;97199.34;136796;1279;22435;-71
2023/11/05 02:30:01;;;;;;;;;;;;;;;7.22;84.35;97195.09;136704;1279;22415;-72
2023/11/05 02:33:03;;;;;;;5.00;3.10;;;;;;;7.22;84.09;97185.39;136598;1279;22451;-71
2023/11/05 02:36:03;;;;;;;4.40;2.60;;;;;;;7.22;83.94;97178.45;136797;1279;22520;-71
2023/11/05 02:39:04;;;;;;;;;;;;;;;7.22;83.83;97173.99;136625;1279;22447;-71
2023/11/05 02:42:05;;;;;;;3.20;2.00;;;;;;;7.22;83.60;97161.18;136794;1279;22387;-71
2023/11/05 02:45:06;;;;;;;6.10;2.10;;;;;;;7.24;83.40;97153.77;136793;1279;22369;-72
2023/11/05 02:48:07;;;;;;;3.40;1.90;;;;;;;7.27;83.21;97150.11;136795;1279;22387;-71
2023/11/05 02:51:09;;;;;;;4.20;2.20;;;;;;;7.31;83.11;97151.34;136778;1279;22254;-72
2023/11/05 02:54:09;;;;;;;3.10;2.10;;;;;;;7.37;83.12;97153.16;136783;1279;23121;-72
2023/11/05 02:57:10;;;;;;;4.20;2.20;;;;;;;7.43;83.09;97155.08;136623;1279;22468;-72
2023/11/05 03:00:15;;;;;;;2.80;1.90;;;;;;;7.48;83.04;97164.93;136791;1279;22390;-72
2023/11/05 03:03:16;;;;;;;3.00;2.00;;;;;;;7.52;82.98;97161.40;136805;1279;22568;-72
2023/11/05 03:06:17;;;;;;;2.60;1.80;;;;;;;7.55;82.96;97161.24;136791;1279;23236;-71
2023/11/05 03:09:17;;;;;;;;;;;;;;;7.59;82.83;97152.43;136806;1279;22464;-72
2023/11/05 03:12:18;;;;;;;7.40;2.50;;;;;;;7.61;82.83;97147.64;136798;1279;23670;-72
2023/11/05 03:15:18;;;;;;;2.10;1.90;;;;;;;7.61;82.76;97143.32;136786;1279;22437;-72
2023/11/05 03:18:19;;;;;;;2.30;2.00;;;;;;;7.63;82.36;97141.11;136775;1279;23304;-72
2023/11/05 03:21:20;;;;;;;1.80;1.60;;;;;;;7.69;82.44;97155.19;136793;1279;23041;-71
2023/11/05 03:24:21;;;;;;;6.40;2.10;;;;;;;7.71;82.55;97155.67;136815;1279;22404;-72
2023/11/05 03:27:23;;;;;;;2.60;1.70;;;;;;;7.73;82.45;97153.66;136806;1272;22288;-72
2023/11/05 03:30:24;;;;;;;;;;;;;;;7.74;82.41;97139.95;136787;1279;22433;-72
2023/11/05 03:33:26;;;;;;;2.30;1.90;;;;;;;7.73;82.36;97127.55;136801;1279;22390;-71
2023/11/05 03:36:27;;;;;;;2.30;2.00;;;;;;;7.73;82.35;97117.45;136780;1279;22371;-72
2023/11/05 03:39:27;;;;;;;7.70;3.10;;;;;;;7.73;82.26;97128.13;136775;1279;23314;-72
2023/11/05 03:42:28;;;;;;;6.00;3.50;;;;;;;7.74;82.34;97137.61;136787;1279;22353;-71
2023/11/05 03:45:28;;;;;;;6.60;3.70;;;;;;;7.77;82.37;97148.62;136779;1279;23561;-71
2023/11/05 03:48:29;;;;;;;7.10;3.90;;;;;;;7.79;82.38;97147.14;136772;1279;22545;-72
2023/11/05 03:51:29;;;;;;;2.60;2.30;;;;;;;7.80;82.34;97143.44;136799;1279;22593;-73
2023/11/05 03:54:30;;;;;;;2.50;1.90;;;;;;;7.79;82.31;97147.66;136798;1279;23345;-72
2023/11/05 03:57:30;;;;;;;2.30;1.70;;;;;;;7.79;82.43;97152.77;136803;1279;22496;-71
2023/11/05 04:00:31;;;;;;;;;;;;;;;7.80;82.32;97151.06;136789;1279;22578;-72
2023/11/05 04:03:32;;;;;;;2.30;1.70;;;;;;;7.79;82.52;97156.84;136792;1279;22416;-72
2023/11/05 04:06:33;;;;;;;2.80;2.20;;;;;;;7.78;82.65;97164.00;136787;1279;22410;-72
2023/11/05 04:09:33;;;;;;;2.40;1.50;;;;;;;7.73;82.55;97172.46;136819;1279;22249;-72
2023/11/05 04:12:37;;;;;;;;;;;;;;;7.68;82.73;97179.13;136845;1279;22413;-72
2023/11/05 04:15:38;;;;;;;3.00;1.60;;;;;;;7.62;82.88;97178.43;136808;1279;22403;-72
2023/11/05 04:18:38;;;;;;;;;;;;;;;7.55;82.96;97182.14;136818;1279;23068;-72
2023/11/05 04:21:39;;;;;;;2.00;1.70;;;;;;;7.48;83.13;97184.25;136805;1279;22379;-71
2023/11/05 04:24:40;;;;;;;3.70;2.20;;;;;;;7.47;83.31;97180.61;136800;1279;23001;-72
2023/11/05 04:27:40;;;;;;;3.20;2.10;;;;;;;7.45;83.31;97179.05;136796;1279;22429;-71
2023/11/05 04:30:41;;;;;;;4.50;2.00;;;;;;;7.48;83.52;97186.40;136776;1279;22455;-71
2023/11/05 04:33:44;;;;;;;2.30;1.60;;;;;;;7.49;83.51;97195.24;136804;1276;22407;-72
2023/11/05 04:36:45;;;;;;;3.30;2.20;;;;;;;7.49;83.71;97203.16;136803;1279;22431;-72
2023/11/05 04:39:45;;;;;;;11.70;7.10;;;;;;;7.43;83.72;97196.95;136805;1279;23510;-72
2023/11/05 04:42:46;;;;;;;14.00;8.50;;;;;;;7.43;84.05;97203.02;136815;1279;22507;-71
2023/11/05 04:45:46;;;;;;;;;;;;;;;7.43;84.07;97200.86;136835;1279;22399;-72
2023/11/05 04:48:47;;;;;;;5.40;2.80;;;;;;;7.46;84.15;97192.20;136786;1279;22422;-71
2023/11/05 04:51:47;;;;;;;3.70;2.60;;;;;;;7.56;84.08;97179.67;136822;1279;22418;-72
2023/11/05 04:54:48;;;;;;;2.10;1.90;;;;;;;7.70;84.00;97174.96;136765;1279;22696;-71
2023/11/05 04:57:48;;;;;;;8.60;2.40;;;;;;;7.85;83.74;97164.29;136831;1278;22398;-72
2023/11/05 05:00:49;;;;;;;3.40;1.60;;;;;;;7.97;83.56;97159.79;136802;1276;22423;-71
2023/11/05 05:03:51;;;;;;;1.90;1.70;;;;;;;8.06;83.26;97157.40;136804;1279;23243;-71
2023/11/05 05:06:51;;;;;;;2.60;1.70;;;;;;;8.17;83.09;97145.03;136793;1279;23065;-72
2023/11/05 05:09:52;;;;;;;2.80;2.20;;;;;;;8.23;82.90;97138.23;136792;1279;22438;-72
2023/11/05 05:12:52;;;;;;;3.90;2.10;;;;;;;8.29;82.70;97138.23;136779;1279;22424;-72
2023/11/05 05:15:53;;;;;;;2.20;2.00;;;;;;;8.34;82.48;97137.16;136800;1279;22440;-72
2023/11/05 05:18:53;;;;;;;2.60;1.80;;;;;;;8.39;82.24;97136.02;136798;1279;22456;-71
2023/11/05 05:21:54;;;;;;;2.90;1.80;;;;;;;8.40;82.26;97132.47;136766;1279;22268;-72
2023/11/05 05:24:55;;;;;;;2.20;1.40;;;;;;;8.38;82.10;97136.70;136776;1279;22479;-71
2023/11/05 05:27:55;;;;;;;2.60;1.80;;;;;;;8.36;82.17;97133.02;136777;1280;22522;-72
2023/11/05 05:30:56;;;;;;;2.30;1.80;;;;;;;8.33;82.16;97132.10;136801;1268;22325;-71
2023/11/05 05:33:56;;;;;;;2.50;1.40;;;;;;;8.30;81.95;97137.54;136790;1278;23075;-71
2023/11/05 05:36:57;;;;;;;2.30;1.80;;;;;;;8.31;81.72;97132.85;136817;1279;22357;-72
2023/11/05 05:39:57;;;;;;;2.30;1.60;;;;;;;8.36;81.46;97131.44;136811;1279;22303;-71
2023/11/05 05:42:58;;;;;;;2.70;1.30;;;;;;;8.41;81.21;97129.21;136783;1280;22448;-71
2023/11/05 05:45:59;;;;;;;1.90;1.70;;;;;;;8.45;81.08;97121.79;136786;1279;22913;-71
2023/11/05 05:49:03;;;;;;;2.40;1.90;;;;;;;8.48;80.44;97116.62;136781;1279;22477;-71
2023/11/05 05:52:04;;;;;;;2.10;1.90;;;;;;;8.53;80.49;97108.86;136805;1279;23165;-71
2023/11/05 05:55:05;;;;;;;4.60;1.70;;;;;;;8.56;80.18;97108.08;136774;1279;22439;-71
2023/11/05 05:58:05;;;;;;;2.40;1.70;;;;;;;8.57;80.24;97111.86;136759;1279;22480;-72
2023/11/05 06:01:06;;;;;;;3.80;1.60;;;;;;;8.56;80.18;97110.90;136615;1280;22414;-71
2023/11/05 06:04:07;;;;;;;2.00;1.80;;;;;;;8.56;79.95;97106.88;136794;1269;22485;-72
2023/11/05 06:07:08;;;;;;;4.80;1.90;;;;;;;8.55;80.13;97092.52;136778;1276;23227;-72
2023/11/05 06:10:11;;;;;;;2.20;1.80;;;;;;;8.50;80.18;97078.62;136803;1275;22430;-72
2023/11/05 06:13:11;;;;;;;3.50;1.60;;;;;;;8.45;80.33;97070.73;136750;1279;22395;-71
2023/11/05 06:16:12;;;;;;;4.00;1.80;;;;;;;8.38;80.47;97066.15;136802;1279;23508;-72
2023/11/05 06:19:12;;;;;;;5.50;2.40;;;;;;;8.33;80.93;97070.44;136780;1279;22383;-72
2023/11/05 06:22:16;;;;;;;2.80;2.10;;;;;;;8.27;81.04;97080.48;136776;1280;22407;-71
2023/11/05 06:25:17;;;;;;;4.90;2.70;;;;;;;8.21;81.36;97083.09;136772;1280;22446;-71
2023/11/05 06:28:21;;;;;;;6.70;2.90;;;;;;;8.18;81.59;97086.71;136769;1278;22459;-72
2023/11/05 06:31:21;;;;;;;3.80;2.20;;;;;;;8.16;81.72;97089.61;136777;1279;22477;-72
2023/11/05 06:34:22;;;;;;;4.50;2.70;;;;;;;8.16;81.78;97091.94;136790;1279;22450;-72
2023/11/05 06:37:23;;;;;;;6.50;2.40;;;;;;;8.17;81.75;97091.53;136793;1279;22437;-72
2023/11/05 06:40:23;;;;;;;4.90;2.40;;;;;;;8.18;81.75;97098.02;136793;1280;22484;-72
2023/11/05 06:43:24;;;;;;;4.40;2.30;;;;;;;8.21;81.86;97103.79;136788;1279;22432;-71
2023/11/05 06:46:27;;;;;;;2.40;2.10;;;;;;;8.23;81.79;97097.73;136773;1279;22413;-72
2023/11/05 06:49:30;;;;;;;2.80;1.90;;;;;;;8.26;81.79;97091.35;136757;1279;22395;-71
2023/11/05 06:52:31;;;;;;;9.10;2.50;;;;;;;8.29;81.72;97088.45;136759;1280;22413;-71
2023/11/05 06:55:31;;;;;;;2.40;2.20;;;;;;;8.32;81.78;97083.83;136784;1279;23446;-72
2023/11/05 06:58:32;;;;;;;3.10;2.30;;;;;;;8.34;81.71;97085.79;136758;1279;22394;-72
2023/11/05 07:01:33;;;;;;;6.30;2.90;;;;;;;8.37;81.53;97082.81;136795;1280;22378;-72
2023/11/05 07:04:33;;;;;;;6.80;2.70;;;;;;;8.41;81.69;97088.11;136763;1278;22434;-72
2023/11/05 07:07:34;;;;;;;7.20;3.80;;;;;;;8.45;81.65;97086.46;136738;1279;22430;-72
2023/11/05 07:10:36;;;;;;;2.80;1.80;;;;;;;8.50;81.55;97078.61;136751;1280;22441;-71
2023/11/05 07:13:37;;;;;;;6.30;2.50;;;;;;;8.58;81.30;97070.70;136772;1279;22439;-72
2023/11/05 07:16:37;;;;;;;;;;;;;;;8.67;81.20;97070.75;136767;1279;22411;-72
2023/11/05 07:19:37;;;;;;;9.40;4.20;;;;;;;8.73;80.88;97071.81;136757;1279;23260;-72
2023/11/05 07:22:38;;;;;;;6.80;5.00;;;;;;;8.78;81.02;97077.77;136757;1279;22453;-71
2023/11/05 07:25:38;;;;;;;6.20;4.50;;;;;;;8.80;81.11;97078.98;136769;1279;23342;-72
2023/11/05 07:28:39;;;;;;;2.60;1.80;;;;;;;8.81;81.07;97085.94;136804;1279;22392;-72
2023/11/05 07:31:43;;;;;;;1.20;1.10;;;;;;;8.83;80.76;97094.40;136804;1276;22401;-73
2023/11/05 07:34:44;;;;;;;2.00;1.80;;;;;;;8.85;80.47;97097.15;136753;1276;23312;-74
2023/11/05 07:37:45;;;;;;;3.40;2.20;;;;;;;8.86;80.50;97106.10;136772;1280;23162;-74
2023/11/05 07:40:46;;;;;;;4.90;2.20;;;;;;;8.86;80.67;97114.71;136779;1279;23205;-74
2023/11/05 07:43:56;;;;;;;2.70;1.60;;;;;;;8.88;80.97;97114.23;136775;1278;22352;-75
2023/11/05 07:46:56;;;;;;;2.90;1.70;;;;;;;8.88;80.72;97109.86;136805;1279;22315;-74
2023/11/05 07:49:59;;;;;;;5.20;1.80;;;;;;;8.87;81.03;97104.54;136783;1279;22402;-74
2023/11/05 07:53:00;;;;;;;3.00;2.30;;;;;;;8.84;81.02;97106.74;136777;1279;22466;-73
2023/11/05 07:56:01;;;;;;;;;;;;;;;8.80;80.98;97098.30;136792;1280;22424;-74
2023/11/05 07:59:03;;;;;;;3.00;2.20;;;;;;;8.78;81.39;97099.30;136751;1279;22479;-73
2023/11/05 08:02:07;;;;;;;5.50;2.80;;;;;;;8.76;81.47;97093.13;136628;1278;22257;-74
2023/11/05 08:05:08;;;;;;;5.40;2.90;;;;;;;8.75;81.72;97086.50;136765;1279;22455;-73
2023/11/05 08:08:09;;;;;;;4.10;3.20;;;;;;;8.77;81.64;97082.99;136768;1272;22475;-74
2023/11/05 08:11:09;;;;;;;8.10;3.40;;;;;;;8.77;81.73;97077.55;136760;1279;22419;-73
2023/11/05 08:14:16;;;;;;;2.80;2.20;;;;;;;8.79;81.93;97069.24;136780;1277;22490;-73
2023/11/05 08:17:21;;;;;;;5.00;2.40;;;;;;;8.83;81.89;97069.06;136735;1279;22457;-73
2023/11/05 08:20:21;;;;;;;2.40;1.80;;;;;;;8.86;82.05;97059.33;136775;1279;23242;-73
2023/11/05 08:23:28;;;;;;;;;;;;;;;8.90;82.01;97057.45;136791;1276;22431;-73
2023/11/05 08:26:28;;;;;;;3.70;2.60;;;;;;;8.95;82.03;97052.54;136782;1279;23274;-73
2023/11/05 08:29:29;;;;;;;4.30;3.70;;;;;;;8.99;81.98;97048.33;136760;1280;22435;-74
2023/11/05 08:32:31;;;;;;;4.90;2.90;;;;;;;9.03;82.10;97046.56;136776;1279;22432;-73
2023/11/05 08:35:31;;;;;;;3.70;2.60;;;;;;;9.12;82.10;97050.92;136770;1280;22441;-73
2023/11/05 08:38:35;;;;;;;4.30;2.60;;;;;;;9.18;81.76;97055.14;136732;1279;22423;-73
2023/11/05 08:41:35;;;;;;;7.10;3.30;;;;;;;9.21;81.48;97056.46;136778;1279;23161;-73
2023/11/05 08:44:38;;;;;;;4.30;2.30;;;;;;;9.25;81.75;97050.64;136772;1279;23094;-73
2023/11/05 08:47:39;;;;;;;5.50;3.10;;;;;;;9.30;81.46;97051.58;136759;1279;23044;-73
2023/11/05 08:50:39;;;;;;;;;;;;;;;9.33;81.71;97050.52;136750;1279;23228;-73
2023/11/05 08:53:40;;;;;;;2.90;2.00;;;;;;;9.39;81.75;97052.06;136773;1279;22391;-73
2023/11/05 08:56:40;;;;;;;3.50;2.30;;;;;;;9.40;81.56;97054.30;136629;1279;23150;-73
2023/11/05 08:59:41;;;;;;;6.80;2.40;;;;;;;9.40;81.55;97045.50;136789;1279;23304;-73
2023/11/05 09:02:41;;;;;;;6.00;2.30;;;;;;;9.46;81.77;97047.40;136726;1280;23557;-73
2023/11/05 09:05:42;;;;;;;3.60;2.20;;;;;;;9.50;81.83;97041.44;136770;1276;22345;-73
2023/11/05 09:08:48;;;;;;;2.80;2.30;;;;;;;9.55;81.78;97031.52;136771;1279;22461;-73
2023/11/05 09:11:52;;;;;;;2.60;2.10;;;;;;;9.59;81.72;97033.95;136753;1279;22429;-73
2023/11/05 09:14:52;;;;;;;3.70;2.40;;;;;;;9.63;81.66;97035.67;136758;1279;22395;-73
2023/11/05 09:17:53;;;;;;;3.20;2.20;;;;;;;9.67;81.78;97037.34;136752;1279;22486;-73
2023/11/05 09:20:56;;;;;;;4.60;2.10;;;;;;;9.72;81.76;97034.92;136751;1279;23268;-73
2023/11/05 09:23:57;;;;;;;2.60;2.10;;;;;;;9.76;81.77;97035.60;136738;1279;22390;-73
2023/11/05 09:26:58;;;;;;;3.80;2.20;;;;;;;9.80;81.53;97028.52;136634;1279;22459;-73
2023/11/05 09:29:59;;;;;;;2.90;1.90;;;;;;;9.82;81.73;97028.61;136777;1276;22219;-73
2023/11/05 09:33:00;;;;;;;;;;;;;;;9.89;81.71;97031.42;136742;1277;22392;-73
2023/11/05 09:36:00;;;;;;;;;;;;;;;9.90;81.57;97030.70;136773;1276;23090;-73
2023/11/05 09:39:01;;;;;;;2.60;2.40;;;;;;;9.91;81.29;97020.02;136723;1280;22390;-73
2023/11/05 09:42:02;;;;;;;3.50;2.40;;;;;;;9.88;81.03;97006.58;136735;1280;22453;-73
2023/11/05 09:45:11;;;;;;;3.10;2.10;;;;;;;9.89;81.41;97009.83;136734;1279;23258;-73
2023/11/05 09:48:12;;;;;;;2.70;2.30;;;;;;;9.92;81.49;97005.80;136742;1279;23002;-73
2023/11/05 09:51:12;;;;;;;3.20;2.20;;;;;;;10.01;81.57;97016.86;136722;1279;22514;-74
2023/11/05 09:54:14;;;;;;;;;;;;;;;10.14;81.70;97011.09;136741;1279;22411;-73
2023/11/05 09:57:14;;;;;;;6.00;2.50;;;;;;;10.29;81.48;97007.49;136754;1279;22465;-73
2023/11/05 10:00:15;;;;;;;3.80;2.90;;;;;;;10.41;81.14;97010.25;136706;1279;22461;-73
2023/11/05 10:03:17;;;;;;;4.50;2.40;;;;;;;10.52;81.13;97015.83;136675;1279;22363;-73
2023/11/05 10:06:18;;;;;;;4.40;2.20;;;;;;;10.59;80.72;97018.80;136737;1278;23126;-73
2023/11/05 10:09:19;;;;;;;3.80;2.10;;;;;;;10.65;80.50;97021.69;136724;1279;22430;-74
2023/11/05 10:12:19;;;;;;;3.70;2.20;;;;;;;10.68;80.07;97024.65;136722;1279;22484;-74
2023/11/05 10:15:23;;;;;;;6.70;2.50;;;;;;;10.71;80.05;97030.16;136751;1279;22355;-73
2023/11/05 10:18:27;;;;;;;2.90;2.00;;;;;;;10.83;79.77;97024.06;136737;1279;22378;-73
2023/11/05 10:21:35;;;;;;;4.30;2.40;;;;;;;11.05;79.75;97018.70;136738;1279;23165;-73
2023/11/05 10:24:45;;;;;;;3.90;2.00;;;;;;;11.32;79.04;97016.97;136712;1279;22457;-73
2023/11/05 10:27:45;;;;;;;3.30;2.00;;;;;;;11.54;78.26;97007.77;136615;1279;22448;-73
2023/11/05 10:30:48;;;;;;;;;;;;;;;11.64;76.93;96998.71;134434;1272;3054860;-73
2023/11/05 10:33:50;;;;;;;6.00;2.10;;;;;;;11.71;76.39;96992.95;136728;1276;22378;-73
2023/11/05 10:36:54;;;;;;;4.10;2.50;;;;;;;11.71;75.95;96991.92;136755;1279;22377;-73
2023/11/05 10:39:55;;;;;;;4.20;2.40;;;;;;;11.59;76.00;96986.86;136744;1279;22435;-73
2023/11/05 10:42:55;;;;;;;4.00;2.00;;;;;;;11.62;76.43;96987.11;136730;1279;22403;-73
2023/11/05 10:45:58;;;;;;;;;;;;;;;11.77;76.04;96989.65;136730;1279;22413;-73
2023/11/05 10:48:59;;;;;;;4.60;2.70;;;;;;;11.92;75.62;96991.25;136787;1279;22365;-73
2023/11/05 10:52:01;;;;;;;7.30;3.00;;;;;;;11.84;74.79;96991.48;136724;1279;22383;-73
2023/11/05 10:55:10;;;;;;;3.60;2.30;;;;;;;11.74;75.17;96996.04;136725;1279;22435;-72
2023/11/05 10:58:10;;;;;;;7.10;3.00;;;;;;;11.65;75.27;96992.61;136750;1272;22452;-72
2023/11/05 11:01:14;;;;;;;5.30;2.70;;;;;;;11.60;75.92;96987.04;136740;1279;22402;-73
2023/11/05 11:04:18;;;;;;;3.40;2.30;;;;;;;11.60;76.15;96983.58;136744;1279;22397;-73
2023/11/05 11:07:18;;;;;;;3.20;2.20;;;;;;;11.63;76.31;96984.04;136771;1276;22432;-73
2023/11/05 11:10:25;;;;;;;4.40;2.00;;;;;;;11.70;76.48;96985.70;136790;1279;22501;-73
2023/11/05 11:13:30;;;;;;;7.30;2.50;;;;;;;11.75;76.37;96977.41;136790;1279;22238;-75
2023/11/05 11:16:32;;;;;;;3.30;2.30;;;;;;;11.70;75.97;96969.29;136756;1279;22765;-73
2023/11/05 11:19:32;;;;;;;3.10;2.10;;;;;;;11.69;76.33;96971.03;136771;1279;23387;-74
2023/11/05 11:22:41;;;;;;;2.40;2.00;;;;;;;11.82;76.21;96964.30;136768;1279;22445;-74
2023/11/05 11:26:05;;;;;;;4.00;2.30;;;;;;;11.90;76.15;96959.35;136765;1279;22473;-74
2023/11/05 11:29:07;;;;;;;4.10;2.20;;;;;;;11.95;75.94;96956.59;136761;1279;22391;-74
2023/11/05 11:32:09;;;;;;;4.70;2.10;;;;;;;11.97;75.78;96959.54;136759;1279;22374;-74
2023/11/05 11:35:10;;;;;;;3.50;2.20;;;;;;;12.05;75.66;96961.52;136760;1279;22401;-73
2023/11/05 11:38:11;;;;;;;2.50;2.10;;;;;;;12.12;75.23;96952.11;136759;1278;22391;-74
2023/11/05 11:41:12;;;;;;;5.40;3.20;;;;;;;12.24;74.93;96946.45;136751;1279;22363;-74
2023/11/05 11:44:13;;;;;;;3.60;2.40;;;;;;;12.39;75.19;96949.65;136739;1279;23091;-74
2023/11/05 11:47:14;;;;;;;4.10;2.60;;;;;;;12.48;74.80;96950.94;136739;1279;22433;-77
2023/11/05 11:50:15;;;;;;;2.70;2.30;;;;;;;12.60;74.83;96953.88;136749;1279;22443;-75
2023/11/05 11:53:28;;;;;;;3.10;2.40;;;;;;;12.75;74.23;96954.45;136777;1279;22454;-75
2023/11/05 11:56:29;;;;;;;4.00;2.60;;;;;;;12.79;73.71;96948.69;136770;1279;22402;-75
2023/11/05 11:59:36;;;;;;;3.20;2.40;;;;;;;12.84;73.35;96953.44;136762;1279;22374;-75
2023/11/05 12:02:42;;;;;;;5.00;2.40;;;;;;;12.80;73.21;96962.46;136752;1279;23209;-75
2023/11/05 12:05:43;;;;;;;4.60;2.60;;;;;;;12.68;73.14;96959.80;136749;1279;22388;-75
2023/11/05 12:08:45;;;;;;;;;;;;;;;12.53;73.11;96962.66;136614;1279;23462;-75
2023/11/05 12:11:47;;;;;;;3.70;2.40;;;;;;;12.36;73.23;96958.41;136748;1279;22395;-75
2023/11/05 12:14:52;;;;;;;2.90;2.50;;;;;;;12.26;73.53;96960.66;136734;1279;22425;-75
2023/11/05 12:17:53;;;;;;;3.40;2.40;;;;;;;12.18;73.56;96964.16;136760;1279;22366;-76
2023/11/05 12:20:53;;;;;;;;;;;;;;;12.10;73.87;96963.46;136749;1279;22471;-75
2023/11/05 12:23:54;;;;;;;5.30;3.00;;;;;;;12.06;74.28;96973.31;136751;1279;22377;-75
2023/11/05 12:26:55;;;;;;;;;;;;;;;12.02;74.55;96968.28;136719;1279;23112;-75
2023/11/05 12:29:55;;;;;;;7.20;2.90;;;;;;;12.06;75.16;96965.30;136737;1279;23114;-75
2023/11/05 12:32:56;;;;;;;6.30;3.70;;;;;;;12.22;75.21;96958.09;136726;1279;23451;-74
2023/11/05 12:35:57;;;;;;;5.60;3.20;;;;;;;12.43;74.94;96955.27;136735;1277;22247;-75
2023/11/05 12:38:58;;;;;;;5.80;3.60;;;;;;;12.59;74.83;96951.91;136724;1272;22302;-75
2023/11/05 12:42:00;;;;;;;4.70;2.80;;;;;;;12.60;73.98;96955.27;136730;1279;22387;-75
2023/11/05 12:45:01;;;;;;;7.90;4.10;;;;;;;12.51;74.15;96942.17;136716;1269;22357;-75
2023/11/05 12:48:03;;;;;;;6.30;3.30;;;;;;;12.46;74.17;96944.23;136748;1279;23540;-75
2023/11/05 12:51:05;;;;;;;9.00;4.20;;;;;;;12.44;74.08;96944.90;136729;1279;22508;-75
2023/11/05 12:54:05;;;;;;;5.30;2.90;;;;;;;12.43;74.34;96942.13;136734;1279;22383;-75
2023/11/05 12:57:07;;;;;;;;;;;;;;;12.45;74.23;96938.63;136727;1279;22472;-75
2023/11/05 13:00:10;;;;;;;3.50;2.80;;;;;;;12.52;74.45;96940.96;136713;1279;22371;-75
2023/11/05 13:03:13;;;;;;;3.60;2.40;;;;;;;12.57;73.66;96945.36;136739;1279;22399;-75
2023/11/05 13:06:13;;;;;;;2.80;1.90;;;;;;;12.52;73.13;96942.20;136738;1279;22369;-76
2023/11/05 13:09:17;;;;;;;2.80;2.10;;;;;;;12.40;72.38;96945.78;136773;1279;22393;-76
2023/11/05 13:12:26;;;;;;;3.00;2.00;;;;;;;12.28;72.38;96953.77;136764;1279;22351;-75
2023/11/05 13:15:28;;;;;;;2.70;2.20;;;;;;;12.15;72.55;96955.64;136774;1279;22258;-75
2023/11/05 13:18:29;;;;;;;2.50;1.90;;;;;;;12.06;72.64;96954.83;136768;1279;23099;-75
2023/11/05 13:21:37;;;;;;;4.20;2.20;;;;;;;11.97;72.61;96955.55;136747;1279;22379;-75
2023/11/05 13:24:37;;;;;;;5.20;2.10;;;;;;;11.90;72.99;96954.63;136742;1279;22379;-75
2023/11/05 13:27:39;;;;;;;5.50;3.40;;;;;;;11.85;72.75;96957.38;136759;1279;22425;-75
2023/11/05 13:30:40;;;;;;;3.80;2.70;;;;;;;11.79;72.83;96961.94;136754;1279;22444;-75
2023/11/05 13:33:43;;;;;;;6.70;3.70;;;;;;;11.74;73.17;96967.84;136757;1279;23262;-74
2023/11/05 13:36:47;;;;;;;7.90;4.10;;;;;;;11.69;73.41;96968.73;136765;1279;22364;-74
2023/11/05 13:39:51;;;;;;;9.10;3.90;;;;;;;11.65;73.58;96973.01;136762;1279;22470;-72
2023/11/05 13:42:55;;;;;;;9.10;3.70;;;;;;;11.60;73.54;96976.25;136642;1276;22564;-73
2023/11/05 13:45:58;;;;;;;3.20;2.20;;;;;;;11.58;73.75;96975.06;136744;1272;22552;-74
2023/11/05 13:49:02;;;;;;;4.90;2.30;;;;;;;11.55;73.82;96980.38;136760;1279;22451;-75
2023/11/05 13:52:06;;;;;;;2.90;1.90;;;;;;;11.49;74.05;96981.70;136761;1279;22443;-74
2023/11/05 13:55:11;;;;;;;4.30;2.30;;;;;;;11.43;74.28;96989.13;136737;1279;23127;-72
2023/11/05 13:58:13;;;;;;;5.30;2.30;;;;;;;11.37;74.56;96990.75;136750;1279;22453;-72
2023/11/05 14:01:23;;;;;;;5.10;2.70;;;;;;;11.30;74.79;96996.36;136625;1279;23366;-72
2023/11/05 14:04:27;;;;;;;3.50;1.90;;;;;;;11.23;75.17;97000.56;136567;1279;22445;-72
2023/11/05 14:07:32;;;;;;;3.30;2.20;;;;;;;11.18;75.33;97005.08;136745;1279;22419;-72
2023/11/05 14:10:34;;;;;;;3.20;2.10;;;;;;;11.12;75.58;97010.26;136754;1276;22626;-72
2023/11/05 14:13:35;;;;;;;3.80;2.70;;;;;;;11.06;75.87;97015.64;136746;1279;23206;-72
2023/11/05 14:16:35;;;;;;;4.90;3.30;;;;;;;11.01;76.26;97023.69;136737;1279;23035;-71
2023/11/05 14:19:39;;;;;;;4.70;3.00;;;;;;;10.94;76.59;97026.72;136749;1279;22428;-71